sensor_id;sensor_type;location;lat;lon;timestamp;P1;durP1;ratioP1;P2;durP2;ratioP2
6751;SDS011;3413;47.680;9.166;2024-03-23T00:54:51;6.63;;;2.10;;
6751;SDS011;3413;47.680;9.166;2024-03-23T00:59:52;3.53;;;1.97;;
6751;SDS011;3413;47.680;9.166;2024-03-23T01:04:53;4.30;;;2.60;;
6751;SDS011;3413;47.680;9.166;2024-03-23T01:09:53;2.63;;;1.50;;
6751;SDS011;3413;47.680;9.166;2024-03-23T01:14:54;2.93;;;1.90;;
6751;SDS011;3413;47.680;9.166;2024-03-23T01:19:55;2.67;;;1.53;;
6751;SDS011;3413;47.680;9.166;2024-03-23T01:24:56;5.27;;;2.47;;
6751;SDS011;3413;47.680;9.166;2024-03-23T01:29:57;6.10;;;1.90;;
6751;SDS011;3413;47.680;9.166;2024-03-23T01:34:58;2.40;;;1.60;;
6751;SDS011;3413;47.680;9.166;2024-03-23T01:39:59;3.20;;;1.70;;
6751;SDS011;3413;47.680;9.166;2024-03-23T01:45:00;2.90;;;2.10;;
6751;SDS011;3413;47.680;9.166;2024-03-23T01:50:01;13.70;;;2.10;;
6751;SDS011;3413;47.680;9.166;2024-03-23T01:55:02;4.33;;;1.93;;
6751;SDS011;3413;47.680;9.166;2024-03-23T02:00:03;6.10;;;1.77;;
6751;SDS011;3413;47.680;9.166;2024-03-23T02:05:12;2.87;;;1.73;;
6751;SDS011;3413;47.680;9.166;2024-03-23T02:10:14;3.57;;;1.87;;
6751;SDS011;3413;47.680;9.166;2024-03-23T02:15:15;3.03;;;1.73;;
6751;SDS011;3413;47.680;9.166;2024-03-23T02:20:16;4.30;;;1.87;;
6751;SDS011;3413;47.680;9.166;2024-03-23T02:25:17;2.20;;;1.70;;
6751;SDS011;3413;47.680;9.166;2024-03-23T02:30:18;5.37;;;2.47;;
6751;SDS011;3413;47.680;9.166;2024-03-23T02:35:19;4.80;;;2.37;;
6751;SDS011;3413;47.680;9.166;2024-03-23T02:40:20;6.90;;;1.87;;
6751;SDS011;3413;47.680;9.166;2024-03-23T02:45:21;5.67;;;2.27;;
6751;SDS011;3413;47.680;9.166;2024-03-23T02:50:22;7.60;;;2.60;;
6751;SDS011;3413;47.680;9.166;2024-03-23T02:55:23;3.33;;;1.80;;
6751;SDS011;3413;47.680;9.166;2024-03-23T03:00:24;3.10;;;1.70;;
6751;SDS011;3413;47.680;9.166;2024-03-23T03:05:25;4.00;;;2.40;;
6751;SDS011;3413;47.680;9.166;2024-03-23T03:10:26;6.33;;;2.37;;
6751;SDS011;3413;47.680;9.166;2024-03-23T03:15:27;4.20;;;2.00;;
6751;SDS011;3413;47.680;9.166;2024-03-23T03:20:28;2.90;;;2.00;;
6751;SDS011;3413;47.680;9.166;2024-03-23T03:25:29;6.40;;;2.30;;
6751;SDS011;3413;47.680;9.166;2024-03-23T03:30:30;8.07;;;2.70;;
6751;SDS011;3413;47.680;9.166;2024-03-23T03:35:31;4.47;;;1.90;;
6751;SDS011;3413;47.680;9.166;2024-03-23T03:40:32;4.10;;;1.77;;
6751;SDS011;3413;47.680;9.166;2024-03-23T03:45:33;3.10;;;1.70;;
6751;SDS011;3413;47.680;9.166;2024-03-23T03:50:34;2.90;;;1.80;;
6751;SDS011;3413;47.680;9.166;2024-03-23T03:55:35;5.00;;;1.70;;
6751;SDS011;3413;47.680;9.166;2024-03-23T04:00:36;4.00;;;2.20;;
6751;SDS011;3413;47.680;9.166;2024-03-23T04:05:37;3.00;;;1.50;;
6751;SDS011;3413;47.680;9.166;2024-03-23T04:10:38;5.00;;;2.27;;
6751;SDS011;3413;47.680;9.166;2024-03-23T04:15:39;3.43;;;2.23;;
6751;SDS011;3413;47.680;9.166;2024-03-23T04:20:40;4.90;;;2.30;;
6751;SDS011;3413;47.680;9.166;2024-03-23T04:25:41;2.40;;;1.67;;
6751;SDS011;3413;47.680;9.166;2024-03-23T04:30:42;4.93;;;2.10;;
6751;SDS011;3413;47.680;9.166;2024-03-23T04:35:43;3.30;;;1.80;;
6751;SDS011;3413;47.680;9.166;2024-03-23T04:40:44;8.90;;;2.30;;
6751;SDS011;3413;47.680;9.166;2024-03-23T04:45:45;4.17;;;2.00;;
6751;SDS011;3413;47.680;9.166;2024-03-23T04:50:46;4.13;;;2.00;;
6751;SDS011;3413;47.680;9.166;2024-03-23T04:55:47;3.87;;;1.77;;
6751;SDS011;3413;47.680;9.166;2024-03-23T05:00:52;2.93;;;1.67;;
6751;SDS011;3413;47.680;9.166;2024-03-23T05:05:56;3.40;;;1.80;;
6751;SDS011;3413;47.680;9.166;2024-03-23T05:10:57;2.67;;;1.70;;
6751;SDS011;3413;47.680;9.166;2024-03-23T05:15:58;2.43;;;1.87;;
6751;SDS011;3413;47.680;9.166;2024-03-23T05:20:59;3.57;;;1.83;;
6751;SDS011;3413;47.680;9.166;2024-03-23T05:26:00;2.70;;;1.40;;
6751;SDS011;3413;47.680;9.166;2024-03-23T05:31:01;3.10;;;1.60;;
6751;SDS011;3413;47.680;9.166;2024-03-23T05:36:02;2.23;;;1.77;;
6751;SDS011;3413;47.680;9.166;2024-03-23T05:41:04;4.17;;;1.67;;
6751;SDS011;3413;47.680;9.166;2024-03-23T05:46:05;12.03;;;2.03;;
6751;SDS011;3413;47.680;9.166;2024-03-23T05:51:08;2.10;;;1.50;;
6751;SDS011;3413;47.680;9.166;2024-03-23T05:56:09;2.40;;;1.43;;
6751;SDS011;3413;47.680;9.166;2024-03-23T06:01:09;11.53;;;2.13;;
6751;SDS011;3413;47.680;9.166;2024-03-23T06:06:10;2.70;;;1.70;;
6751;SDS011;3413;47.680;9.166;2024-03-23T06:11:13;3.30;;;1.60;;
6751;SDS011;3413;47.680;9.166;2024-03-23T06:16:14;3.47;;;1.70;;
6751;SDS011;3413;47.680;9.166;2024-03-23T06:21:15;2.90;;;1.20;;
6751;SDS011;3413;47.680;9.166;2024-03-23T06:26:16;2.33;;;1.60;;
6751;SDS011;3413;47.680;9.166;2024-03-23T06:31:18;2.00;;;1.40;;
6751;SDS011;3413;47.680;9.166;2024-03-23T06:36:19;3.00;;;1.50;;
6751;SDS011;3413;47.680;9.166;2024-03-23T06:41:20;4.90;;;1.80;;
6751;SDS011;3413;47.680;9.166;2024-03-23T06:46:21;3.43;;;1.63;;
6751;SDS011;3413;47.680;9.166;2024-03-23T06:51:22;1.93;;;1.60;;
6751;SDS011;3413;47.680;9.166;2024-03-23T06:56:23;5.93;;;1.73;;
6751;SDS011;3413;47.680;9.166;2024-03-23T07:01:24;3.90;;;1.53;;
6751;SDS011;3413;47.680;9.166;2024-03-23T07:06:24;3.20;;;1.80;;
6751;SDS011;3413;47.680;9.166;2024-03-23T07:11:26;3.90;;;1.90;;
6751;SDS011;3413;47.680;9.166;2024-03-23T07:16:27;4.57;;;1.70;;
6751;SDS011;3413;47.680;9.166;2024-03-23T07:21:27;4.13;;;1.87;;
6751;SDS011;3413;47.680;9.166;2024-03-23T07:26:28;4.43;;;1.67;;
6751;SDS011;3413;47.680;9.166;2024-03-23T07:31:29;3.10;;;1.73;;
6751;SDS011;3413;47.680;9.166;2024-03-23T07:36:30;3.90;;;1.90;;
6751;SDS011;3413;47.680;9.166;2024-03-23T07:41:31;3.63;;;1.90;;
6751;SDS011;3413;47.680;9.166;2024-03-23T07:46:32;5.00;;;1.97;;
6751;SDS011;3413;47.680;9.166;2024-03-23T07:51:33;5.07;;;2.43;;
6751;SDS011;3413;47.680;9.166;2024-03-23T07:56:35;3.30;;;1.70;;
6751;SDS011;3413;47.680;9.166;2024-03-23T08:01:36;5.07;;;2.30;;
6751;SDS011;3413;47.680;9.166;2024-03-23T08:06:37;3.40;;;2.00;;
6751;SDS011;3413;47.680;9.166;2024-03-23T08:11:38;2.90;;;1.67;;
6751;SDS011;3413;47.680;9.166;2024-03-23T08:16:39;7.40;;;1.73;;
6751;SDS011;3413;47.680;9.166;2024-03-23T08:21:41;4.93;;;2.10;;
6751;SDS011;3413;47.680;9.166;2024-03-23T08:26:42;2.80;;;1.03;;
6751;SDS011;3413;47.680;9.166;2024-03-23T08:31:43;1.10;;;0.77;;
6751;SDS011;3413;47.680;9.166;2024-03-23T08:36:44;1.30;;;0.70;;
6751;SDS011;3413;47.680;9.166;2024-03-23T08:41:45;0.90;;;0.60;;
6751;SDS011;3413;47.680;9.166;2024-03-23T08:46:46;1.03;;;0.60;;
6751;SDS011;3413;47.680;9.166;2024-03-23T08:51:47;3.77;;;1.30;;
6751;SDS011;3413;47.680;9.166;2024-03-23T08:56:48;1.23;;;0.70;;
6751;SDS011;3413;47.680;9.166;2024-03-23T09:01:50;1.10;;;0.60;;
6751;SDS011;3413;47.680;9.166;2024-03-23T09:06:51;0.97;;;0.70;;
6751;SDS011;3413;47.680;9.166;2024-03-23T09:11:52;1.83;;;0.60;;
6751;SDS011;3413;47.680;9.166;2024-03-23T09:16:53;0.90;;;0.60;;
6751;SDS011;3413;47.680;9.166;2024-03-23T09:21:54;1.10;;;0.57;;
6751;SDS011;3413;47.680;9.166;2024-03-23T09:26:55;1.70;;;1.43;;
6751;SDS011;3413;47.680;9.166;2024-03-23T09:31:56;1.20;;;0.60;;
6751;SDS011;3413;47.680;9.166;2024-03-23T09:36:58;1.67;;;0.70;;
6751;SDS011;3413;47.680;9.166;2024-03-23T09:41:59;0.90;;;0.70;;
6751;SDS011;3413;47.680;9.166;2024-03-23T09:47:00;0.90;;;0.60;;
6751;SDS011;3413;47.680;9.166;2024-03-23T09:52:02;0.90;;;0.60;;
6751;SDS011;3413;47.680;9.166;2024-03-23T09:57:03;2.60;;;0.80;;
6751;SDS011;3413;47.680;9.166;2024-03-23T10:02:06;1.00;;;0.60;;
6751;SDS011;3413;47.680;9.166;2024-03-23T10:07:20;1.20;;;0.77;;
6751;SDS011;3413;47.680;9.166;2024-03-23T10:12:24;1.50;;;0.67;;
6751;SDS011;3413;47.680;9.166;2024-03-23T10:17:25;1.40;;;0.70;;
6751;SDS011;3413;47.680;9.166;2024-03-23T10:22:26;1.30;;;0.70;;
6751;SDS011;3413;47.680;9.166;2024-03-23T10:27:27;1.47;;;0.60;;
6751;SDS011;3413;47.680;9.166;2024-03-23T10:32:28;1.20;;;0.73;;
6751;SDS011;3413;47.680;9.166;2024-03-23T10:37:29;1.23;;;0.87;;
6751;SDS011;3413;47.680;9.166;2024-03-23T10:42:31;2.00;;;1.00;;
6751;SDS011;3413;47.680;9.166;2024-03-23T10:47:34;1.10;;;0.70;;
6751;SDS011;3413;47.680;9.166;2024-03-23T10:52:36;4.03;;;0.77;;
6751;SDS011;3413;47.680;9.166;2024-03-23T10:57:41;1.73;;;0.93;;
6751;SDS011;3413;47.680;9.166;2024-03-23T11:02:58;3.70;;;1.00;;
6751;SDS011;3413;47.680;9.166;2024-03-23T11:07:59;1.50;;;0.70;;
6751;SDS011;3413;47.680;9.166;2024-03-23T11:13:33;2.60;;;0.97;;
6751;SDS011;3413;47.680;9.166;2024-03-23T11:18:30;2.23;;;0.80;;
6751;SDS011;3413;47.680;9.166;2024-03-23T11:23:31;1.43;;;0.80;;
6751;SDS011;3413;47.680;9.166;2024-03-23T11:28:32;7.53;;;1.27;;
6751;SDS011;3413;47.680;9.166;2024-03-23T11:33:33;7.07;;;1.50;;
6751;SDS011;3413;47.680;9.166;2024-03-23T11:38:36;3.20;;;1.30;;
6751;SDS011;3413;47.680;9.166;2024-03-23T11:43:37;5.37;;;1.13;;
6751;SDS011;3413;47.680;9.166;2024-03-23T11:48:38;2.67;;;1.20;;
6751;SDS011;3413;47.680;9.166;2024-03-23T11:53:40;3.20;;;1.20;;
6751;SDS011;3413;47.680;9.166;2024-03-23T11:58:41;5.53;;;1.10;;
6751;SDS011;3413;47.680;9.166;2024-03-23T12:03:43;9.33;;;1.43;;
6751;SDS011;3413;47.680;9.166;2024-03-23T12:08:44;3.27;;;1.40;;
6751;SDS011;3413;47.680;9.166;2024-03-23T12:13:45;5.57;;;1.30;;
6751;SDS011;3413;47.680;9.166;2024-03-23T12:18:48;2.37;;;1.00;;
6751;SDS011;3413;47.680;9.166;2024-03-23T12:23:50;4.87;;;1.67;;
6751;SDS011;3413;47.680;9.166;2024-03-23T12:28:52;9.17;;;1.47;;
6751;SDS011;3413;47.680;9.166;2024-03-23T12:33:53;6.27;;;1.70;;
6751;SDS011;3413;47.680;9.166;2024-03-23T12:38:54;3.50;;;1.30;;
6751;SDS011;3413;47.680;9.166;2024-03-23T12:43:55;4.90;;;1.03;;
6751;SDS011;3413;47.680;9.166;2024-03-23T12:48:55;3.53;;;1.30;;
6751;SDS011;3413;47.680;9.166;2024-03-23T12:53:58;4.97;;;0.90;;
6751;SDS011;3413;47.680;9.166;2024-03-23T12:58:59;3.93;;;1.10;;
6751;SDS011;3413;47.680;9.166;2024-03-23T13:04:00;4.27;;;1.37;;
6751;SDS011;3413;47.680;9.166;2024-03-23T13:09:03;1.17;;;0.80;;
6751;SDS011;3413;47.680;9.166;2024-03-23T13:14:05;1.87;;;0.97;;
6751;SDS011;3413;47.680;9.166;2024-03-23T13:19:06;1.37;;;0.77;;
6751;SDS011;3413;47.680;9.166;2024-03-23T13:24:07;2.20;;;0.90;;
6751;SDS011;3413;47.680;9.166;2024-03-23T13:29:08;1.20;;;0.90;;
6751;SDS011;3413;47.680;9.166;2024-03-23T13:34:09;3.53;;;0.80;;
6751;SDS011;3413;47.680;9.166;2024-03-23T13:39:11;3.10;;;1.10;;
6751;SDS011;3413;47.680;9.166;2024-03-23T13:44:12;2.03;;;0.90;;
6751;SDS011;3413;47.680;9.166;2024-03-23T13:49:24;4.40;;;1.40;;
6751;SDS011;3413;47.680;9.166;2024-03-23T13:54:28;4.50;;;1.27;;
6751;SDS011;3413;47.680;9.166;2024-03-23T13:59:29;2.20;;;1.10;;
6751;SDS011;3413;47.680;9.166;2024-03-23T14:04:30;6.83;;;1.00;;
6751;SDS011;3413;47.680;9.166;2024-03-23T14:09:31;2.50;;;0.93;;
6751;SDS011;3413;47.680;9.166;2024-03-23T14:14:33;4.67;;;1.20;;
6751;SDS011;3413;47.680;9.166;2024-03-23T14:19:34;1.70;;;0.77;;
6751;SDS011;3413;47.680;9.166;2024-03-23T14:24:35;2.93;;;1.00;;
6751;SDS011;3413;47.680;9.166;2024-03-23T14:29:36;3.00;;;1.20;;
6751;SDS011;3413;47.680;9.166;2024-03-23T14:34:37;1.83;;;0.90;;
6751;SDS011;3413;47.680;9.166;2024-03-23T14:39:38;1.20;;;0.80;;
6751;SDS011;3413;47.680;9.166;2024-03-23T14:44:42;3.53;;;1.40;;
6751;SDS011;3413;47.680;9.166;2024-03-23T14:49:43;1.63;;;1.00;;
6751;SDS011;3413;47.680;9.166;2024-03-23T14:54:47;3.97;;;1.33;;
6751;SDS011;3413;47.680;9.166;2024-03-23T14:59:48;2.13;;;0.90;;
6751;SDS011;3413;47.680;9.166;2024-03-23T15:04:49;2.07;;;1.10;;
6751;SDS011;3413;47.680;9.166;2024-03-23T15:09:50;2.20;;;0.90;;
6751;SDS011;3413;47.680;9.166;2024-03-23T15:14:51;2.20;;;0.97;;
6751;SDS011;3413;47.680;9.166;2024-03-23T15:19:52;5.43;;;1.20;;
6751;SDS011;3413;47.680;9.166;2024-03-23T15:24:56;7.90;;;1.27;;
6751;SDS011;3413;47.680;9.166;2024-03-23T15:29:57;1.40;;;0.97;;
6751;SDS011;3413;47.680;9.166;2024-03-23T15:34:58;1.50;;;1.00;;
6751;SDS011;3413;47.680;9.166;2024-03-23T15:39:59;4.33;;;1.03;;
6751;SDS011;3413;47.680;9.166;2024-03-23T15:45:00;2.13;;;0.87;;
6751;SDS011;3413;47.680;9.166;2024-03-23T15:50:01;3.60;;;0.90;;
6751;SDS011;3413;47.680;9.166;2024-03-23T15:55:04;8.63;;;1.30;;
6751;SDS011;3413;47.680;9.166;2024-03-23T16:00:10;3.13;;;1.07;;
6751;SDS011;3413;47.680;9.166;2024-03-23T16:05:13;3.73;;;1.03;;
6751;SDS011;3413;47.680;9.166;2024-03-23T16:10:14;1.97;;;0.90;;
6751;SDS011;3413;47.680;9.166;2024-03-23T16:15:15;4.97;;;1.03;;
6751;SDS011;3413;47.680;9.166;2024-03-23T16:20:16;4.27;;;1.00;;
6751;SDS011;3413;47.680;9.166;2024-03-23T16:25:17;3.23;;;1.00;;
6751;SDS011;3413;47.680;9.166;2024-03-23T16:30:19;0.80;;;0.60;;
6751;SDS011;3413;47.680;9.166;2024-03-23T16:35:20;2.70;;;0.80;;
6751;SDS011;3413;47.680;9.166;2024-03-23T16:40:21;1.50;;;1.03;;
6751;SDS011;3413;47.680;9.166;2024-03-23T16:45:24;4.33;;;1.00;;
6751;SDS011;3413;47.680;9.166;2024-03-23T16:50:25;3.40;;;1.40;;
6751;SDS011;3413;47.680;9.166;2024-03-23T16:55:26;7.20;;;1.57;;
6751;SDS011;3413;47.680;9.166;2024-03-23T17:00:27;9.03;;;2.10;;
6751;SDS011;3413;47.680;9.166;2024-03-23T17:05:28;3.27;;;0.83;;
6751;SDS011;3413;47.680;9.166;2024-03-23T17:10:29;2.20;;;0.90;;
6751;SDS011;3413;47.680;9.166;2024-03-23T17:15:30;6.93;;;0.90;;
6751;SDS011;3413;47.680;9.166;2024-03-23T17:20:31;5.60;;;1.40;;
6751;SDS011;3413;47.680;9.166;2024-03-23T17:25:33;1.10;;;0.80;;
6751;SDS011;3413;47.680;9.166;2024-03-23T17:30:34;2.70;;;0.90;;
6751;SDS011;3413;47.680;9.166;2024-03-23T17:35:34;1.93;;;1.00;;
6751;SDS011;3413;47.680;9.166;2024-03-23T17:40:35;2.50;;;1.00;;
6751;SDS011;3413;47.680;9.166;2024-03-23T17:45:36;3.77;;;0.90;;
6751;SDS011;3413;47.680;9.166;2024-03-23T17:50:37;4.90;;;0.70;;
6751;SDS011;3413;47.680;9.166;2024-03-23T17:55:38;2.03;;;0.87;;
6751;SDS011;3413;47.680;9.166;2024-03-23T18:00:39;1.83;;;1.00;;
6751;SDS011;3413;47.680;9.166;2024-03-23T18:05:40;5.50;;;1.70;;
6751;SDS011;3413;47.680;9.166;2024-03-23T18:10:41;1.87;;;0.80;;
6751;SDS011;3413;47.680;9.166;2024-03-23T18:15:42;3.70;;;0.80;;
6751;SDS011;3413;47.680;9.166;2024-03-23T18:20:43;2.03;;;0.83;;
6751;SDS011;3413;47.680;9.166;2024-03-23T18:25:53;2.33;;;1.10;;
6751;SDS011;3413;47.680;9.166;2024-03-23T18:30:59;1.43;;;0.80;;
6751;SDS011;3413;47.680;9.166;2024-03-23T18:36:01;1.97;;;1.00;;
6751;SDS011;3413;47.680;9.166;2024-03-23T18:41:03;1.80;;;1.07;;
6751;SDS011;3413;47.680;9.166;2024-03-23T18:46:05;1.10;;;0.80;;
6751;SDS011;3413;47.680;9.166;2024-03-23T18:51:06;4.07;;;1.03;;
6751;SDS011;3413;47.680;9.166;2024-03-23T18:56:07;2.80;;;0.70;;
6751;SDS011;3413;47.680;9.166;2024-03-23T19:01:09;1.63;;;0.70;;
6751;SDS011;3413;47.680;9.166;2024-03-23T19:06:10;1.10;;;0.70;;
6751;SDS011;3413;47.680;9.166;2024-03-23T19:11:11;0.90;;;0.60;;
6751;SDS011;3413;47.680;9.166;2024-03-23T19:16:12;3.83;;;0.70;;
6751;SDS011;3413;47.680;9.166;2024-03-23T19:21:13;1.77;;;0.90;;
6751;SDS011;3413;47.680;9.166;2024-03-23T19:26:14;3.23;;;1.20;;
6751;SDS011;3413;47.680;9.166;2024-03-23T19:31:15;2.20;;;1.33;;
6751;SDS011;3413;47.680;9.166;2024-03-23T19:36:16;1.50;;;0.77;;
6751;SDS011;3413;47.680;9.166;2024-03-23T19:41:17;1.87;;;0.90;;
6751;SDS011;3413;47.680;9.166;2024-03-23T19:46:18;1.23;;;0.70;;
6751;SDS011;3413;47.680;9.166;2024-03-23T19:51:19;0.90;;;0.60;;
6751;SDS011;3413;47.680;9.166;2024-03-23T19:56:20;1.30;;;0.80;;
6751;SDS011;3413;47.680;9.166;2024-03-23T20:01:21;1.00;;;0.70;;
6751;SDS011;3413;47.680;9.166;2024-03-23T20:06:22;1.20;;;0.80;;
6751;SDS011;3413;47.680;9.166;2024-03-23T20:11:26;1.77;;;0.97;;
6751;SDS011;3413;47.680;9.166;2024-03-23T20:16:27;2.60;;;1.00;;
6751;SDS011;3413;47.680;9.166;2024-03-23T20:21:28;1.20;;;0.70;;
6751;SDS011;3413;47.680;9.166;2024-03-23T20:26:29;2.93;;;0.80;;
6751;SDS011;3413;47.680;9.166;2024-03-23T20:31:30;1.10;;;0.80;;
6751;SDS011;3413;47.680;9.166;2024-03-23T20:36:31;3.20;;;0.90;;
6751;SDS011;3413;47.680;9.166;2024-03-23T20:41:32;4.00;;;0.87;;
6751;SDS011;3413;47.680;9.166;2024-03-23T20:46:33;2.17;;;0.87;;
6751;SDS011;3413;47.680;9.166;2024-03-23T20:51:34;1.80;;;0.70;;
6751;SDS011;3413;47.680;9.166;2024-03-23T20:56:35;3.50;;;0.80;;
6751;SDS011;3413;47.680;9.166;2024-03-23T21:01:36;2.93;;;1.13;;
6751;SDS011;3413;47.680;9.166;2024-03-23T21:06:37;2.40;;;0.80;;
6751;SDS011;3413;47.680;9.166;2024-03-23T21:11:39;2.80;;;1.00;;
6751;SDS011;3413;47.680;9.166;2024-03-23T21:16:40;4.07;;;0.80;;
6751;SDS011;3413;47.680;9.166;2024-03-23T21:21:42;1.33;;;0.60;;
6751;SDS011;3413;47.680;9.166;2024-03-23T21:26:43;1.77;;;0.90;;
6751;SDS011;3413;47.680;9.166;2024-03-23T21:31:45;0.90;;;0.70;;
6751;SDS011;3413;47.680;9.166;2024-03-23T21:36:47;1.00;;;0.80;;
6751;SDS011;3413;47.680;9.166;2024-03-23T21:41:48;2.10;;;0.77;;
6751;SDS011;3413;47.680;9.166;2024-03-23T21:46:49;1.00;;;0.70;;
6751;SDS011;3413;47.680;9.166;2024-03-23T21:51:50;1.17;;;0.80;;
6751;SDS011;3413;47.680;9.166;2024-03-23T21:56:51;11.17;;;2.33;;
6751;SDS011;3413;47.680;9.166;2024-03-23T22:01:52;1.07;;;0.60;;
6751;SDS011;3413;47.680;9.166;2024-03-23T22:06:54;1.40;;;0.87;;
6751;SDS011;3413;47.680;9.166;2024-03-23T22:11:55;1.17;;;0.87;;
6751;SDS011;3413;47.680;9.166;2024-03-23T22:16:57;2.80;;;1.10;;
6751;SDS011;3413;47.680;9.166;2024-03-23T22:21:58;1.80;;;0.93;;
6751;SDS011;3413;47.680;9.166;2024-03-23T22:26:59;0.87;;;0.60;;
6751;SDS011;3413;47.680;9.166;2024-03-23T22:32:00;1.50;;;1.00;;
6751;SDS011;3413;47.680;9.166;2024-03-23T22:37:03;1.37;;;1.03;;
6751;SDS011;3413;47.680;9.166;2024-03-23T22:42:04;2.90;;;0.80;;
6751;SDS011;3413;47.680;9.166;2024-03-23T22:47:05;2.03;;;1.13;;
6751;SDS011;3413;47.680;9.166;2024-03-23T22:52:06;2.60;;;0.60;;
6751;SDS011;3413;47.680;9.166;2024-03-23T22:57:07;2.17;;;0.93;;
6751;SDS011;3413;47.680;9.166;2024-03-23T23:02:08;1.40;;;1.00;;
6751;SDS011;3413;47.680;9.166;2024-03-23T23:07:09;1.77;;;0.63;;
6751;SDS011;3413;47.680;9.166;2024-03-23T23:12:10;2.90;;;1.00;;
6751;SDS011;3413;47.680;9.166;2024-03-23T23:17:10;3.00;;;0.83;;
6751;SDS011;3413;47.680;9.166;2024-03-23T23:22:11;1.00;;;0.70;;
6751;SDS011;3413;47.680;9.166;2024-03-23T23:27:12;2.03;;;0.80;;
6751;SDS011;3413;47.680;9.166;2024-03-23T23:32:13;0.93;;;0.70;;
6751;SDS011;3413;47.680;9.166;2024-03-23T23:37:14;2.23;;;1.03;;
6751;SDS011;3413;47.680;9.166;2024-03-23T23:42:15;1.90;;;0.70;;
6751;SDS011;3413;47.680;9.166;2024-03-23T23:47:17;1.20;;;0.80;;
6751;SDS011;3413;47.680;9.166;2024-03-23T23:52:18;2.50;;;0.80;;
6751;SDS011;3413;47.680;9.166;2024-03-23T23:57:19;2.40;;;1.00;;
